Time;durP1;ratioP1;P1;durP2;ratioP2;P2;SDS_P1;SDS_P2;PMS_P1;PMS_P2;Temp;Humidity;BMP_temperature;BMP_pressure;BME280_temperature;BME280_humidity;BME280_pressure;Samples;Min_cycle;Max_cycle;Signal;HPM_P1;HPM_P2
2021/09/06 00:00:51;;;;;;;1.30;0.90;;;;;;;;;;5115588;28;20028;-61
2021/09/06 00:03:18;;;;;;;1.83;1.00;;;;;;;;;;5113451;28;20473;-61
2021/09/06 00:05:44;;;;;;;2.10;0.90;;;;;;;;;;5115243;28;20036;-61
2021/09/06 00:08:11;;;;;;;3.47;1.13;;;;;;;;;;5115334;28;20020;-61
2021/09/06 00:10:41;;;;;;;1.23;0.80;;;;;;;;;;5112837;28;20389;-61
2021/09/06 00:13:09;;;;;;;2.93;0.90;;;;;;;;;;5110069;28;20031;-61
2021/09/06 00:15:36;;;;;;;0.77;0.63;;;;;;;;;;5096505;28;20123;-61
2021/09/06 00:18:04;;;;;;;7.57;0.90;;;;;;;;;;5089479;28;20046;-61
2021/09/06 00:20:32;;;;;;;4.60;1.03;;;;;;;;;;5091293;28;20442;-61
2021/09/06 00:22:58;;;;;;;2.90;1.20;;;;;;;;;;5094640;28;20020;-62
2021/09/06 00:25:25;;;;;;;1.50;0.83;;;;;;;;;;5094763;28;20364;-62
2021/09/06 00:27:52;;;;;;;2.03;0.93;;;;;;;;;;5094837;28;20016;-61
2021/09/06 00:30:19;;;;;;;2.50;1.40;;;;;;;;;;5109454;28;20064;-62
2021/09/06 00:32:46;;;;;;;5.47;2.10;;;;;;;;;;5113220;28;20039;-62
2021/09/06 00:35:12;;;;;;;5.17;2.27;;;;;;;;;;5109438;28;20024;-62
2021/09/06 00:37:39;;;;;;;3.37;1.50;;;;;;;;;;5109549;28;20114;-62
2021/09/06 00:40:07;;;;;;;3.00;1.10;;;;;;;;;;5108588;28;20470;-62
2021/09/06 00:42:33;;;;;;;5.50;1.33;;;;;;;;;;5089615;28;20044;-62
2021/09/06 00:45:00;;;;;;;6.80;1.60;;;;;;;;;;5112737;28;20506;-62
2021/09/06 00:47:27;;;;;;;3.17;1.77;;;;;;;;;;5114582;28;20101;-62
2021/09/06 00:49:54;;;;;;;4.40;1.20;;;;;;;;;;5114274;28;20035;-61
2021/09/06 00:52:21;;;;;;;4.07;1.10;;;;;;;;;;5114251;28;20461;-62
2021/09/06 00:54:48;;;;;;;1.83;1.20;;;;;;;;;;5113564;28;20031;-62
2021/09/06 00:57:15;;;;;;;1.70;0.97;;;;;;;;;;5105530;28;20032;-62
2021/09/06 00:59:41;;;;;;;2.53;1.10;;;;;;;;;;5089872;28;20146;-62
2021/09/06 01:02:08;;;;;;;3.80;1.60;;;;;;;;;;5088871;28;20028;-61
2021/09/06 01:04:35;;;;;;;8.80;1.80;;;;;;;;;;5088803;28;20020;-62
2021/09/06 01:07:02;;;;;;;4.33;1.40;;;;;;;;;;5093525;28;20020;-62
2021/09/06 01:09:29;;;;;;;4.33;1.70;;;;;;;;;;5093642;28;20371;-62
2021/09/06 01:11:55;;;;;;;5.73;1.90;;;;;;;;;;5101636;28;20032;-62
2021/09/06 01:14:22;;;;;;;4.00;1.80;;;;;;;;;;5113670;28;20024;-62
2021/09/06 01:16:50;;;;;;;4.77;1.87;;;;;;;;;;5113998;28;20355;-61
2021/09/06 01:19:16;;;;;;;4.07;2.00;;;;;;;;;;5109051;28;20440;-62
2021/09/06 01:21:43;;;;;;;5.40;1.63;;;;;;;;;;5108981;28;20035;-61
2021/09/06 01:24:10;;;;;;;2.63;1.20;;;;;;;;;;5108853;28;20024;-62
2021/09/06 01:26:37;;;;;;;2.30;1.30;;;;;;;;;;5097868;28;20039;-62
2021/09/06 01:29:07;;;;;;;2.53;1.00;;;;;;;;;;5091901;28;20024;-62
2021/09/06 01:31:34;;;;;;;2.13;0.97;;;;;;;;;;5092844;28;20038;-62
2021/09/06 01:34:01;;;;;;;2.47;1.23;;;;;;;;;;5093329;28;20100;-61
2021/09/06 01:36:28;;;;;;;2.23;1.03;;;;;;;;;;5093218;28;20115;-61
2021/09/06 01:38:55;;;;;;;2.63;1.07;;;;;;;;;;5093170;28;20374;-61
2021/09/06 01:41:21;;;;;;;4.00;1.50;;;;;;;;;;5090981;28;20028;-62
2021/09/06 01:43:48;;;;;;;6.97;1.87;;;;;;;;;;5087826;28;20157;-62
2021/09/06 01:46:15;;;;;;;3.17;1.10;;;;;;;;;;5087857;28;20039;-62
2021/09/06 01:48:42;;;;;;;4.43;1.60;;;;;;;;;;5087975;28;20036;-62
2021/09/06 01:51:09;;;;;;;2.53;1.20;;;;;;;;;;5090157;28;20024;-62
2021/09/06 01:53:36;;;;;;;2.07;0.90;;;;;;;;;;5093181;28;20023;-62
2021/09/06 01:56:02;;;;;;;3.60;1.10;;;;;;;;;;5110109;28;20029;-62
2021/09/06 01:58:29;;;;;;;2.40;1.63;;;;;;;;;;5113194;28;20028;-62
2021/09/06 02:00:56;;;;;;;4.27;1.10;;;;;;;;;;5112676;28;20019;-62
2021/09/06 02:03:23;;;;;;;5.40;1.30;;;;;;;;;;5110476;28;20489;-62
2021/09/06 02:05:49;;;;;;;3.73;1.50;;;;;;;;;;5108029;28;20051;-62
2021/09/06 02:08:16;;;;;;;2.00;1.17;;;;;;;;;;5107581;28;20024;-61
2021/09/06 02:10:43;;;;;;;4.97;1.57;;;;;;;;;;5066955;28;20017;-61
2021/09/06 02:13:10;;;;;;;3.27;1.30;;;;;;;;;;5069211;28;20036;-62
2021/09/06 02:15:37;;;;;;;1.67;1.17;;;;;;;;;;5073087;28;20024;-62
2021/09/06 02:18:03;;;;;;;3.37;1.40;;;;;;;;;;5072105;28;20040;-62
2021/09/06 02:20:30;;;;;;;2.27;1.10;;;;;;;;;;5071844;28;20075;-61
2021/09/06 02:22:57;;;;;;;6.70;1.63;;;;;;;;;;5076054;28;20056;-61
2021/09/06 02:25:24;;;;;;;3.37;1.10;;;;;;;;;;5111099;28;20136;-62
2021/09/06 02:27:50;;;;;;;2.03;1.00;;;;;;;;;;5107712;28;20094;-62
2021/09/06 02:30:17;;;;;;;2.00;0.93;;;;;;;;;;5107204;28;20050;-62
2021/09/06 02:32:44;;;;;;;2.63;1.10;;;;;;;;;;5107709;28;20023;-62
2021/09/06 02:35:11;;;;;;;2.53;1.37;;;;;;;;;;5108119;28;21293;-61
2021/09/06 02:37:37;;;;;;;4.43;2.60;;;;;;;;;;5106654;28;20100;-61
2021/09/06 02:40:05;;;;;;;4.87;2.30;;;;;;;;;;5092277;28;20482;-62
2021/09/06 02:42:31;;;;;;;3.80;1.80;;;;;;;;;;5092289;28;20020;-62
2021/09/06 02:44:59;;;;;;;4.00;1.97;;;;;;;;;;5092325;28;20016;-62
2021/09/06 02:47:28;;;;;;;7.73;2.80;;;;;;;;;;5091261;28;20024;-62
2021/09/06 02:49:55;;;;;;;2.77;1.50;;;;;;;;;;5086926;28;20036;-62
2021/09/06 02:52:22;;;;;;;4.83;1.33;;;;;;;;;;5087117;28;20119;-61
2021/09/06 02:54:49;;;;;;;6.00;1.60;;;;;;;;;;5087211;28;20029;-62
2021/09/06 02:57:16;;;;;;;4.17;1.27;;;;;;;;;;5087020;28;20032;-62
2021/09/06 02:59:43;;;;;;;2.17;1.00;;;;;;;;;;5092132;28;20036;-61
2021/09/06 03:02:09;;;;;;;2.53;1.20;;;;;;;;;;5092090;28;20027;-61
2021/09/06 03:04:36;;;;;;;3.47;1.47;;;;;;;;;;5092142;28;20024;-61
2021/09/06 03:07:03;;;;;;;1.93;1.10;;;;;;;;;;5105958;28;20023;-62
2021/09/06 03:09:30;;;;;;;3.73;1.03;;;;;;;;;;5112250;28;20019;-62
2021/09/06 03:11:57;;;;;;;3.33;1.67;;;;;;;;;;5107459;28;20028;-61
2021/09/06 03:14:24;;;;;;;11.53;1.73;;;;;;;;;;5106878;28;20024;-61
2021/09/06 03:16:51;;;;;;;5.43;1.10;;;;;;;;;;5107252;28;20111;-62
2021/09/06 03:19:18;;;;;;;2.70;1.03;;;;;;;;;;5105339;28;20024;-62
2021/09/06 03:21:45;;;;;;;4.97;1.20;;;;;;;;;;5111179;28;20054;-62
2021/09/06 03:24:12;;;;;;;3.57;1.10;;;;;;;;;;5111766;28;20474;-62
2021/09/06 03:26:39;;;;;;;4.50;1.33;;;;;;;;;;5112149;28;20063;-61
2021/09/06 03:29:06;;;;;;;4.70;1.30;;;;;;;;;;5112359;28;20024;-62
2021/09/06 03:31:32;;;;;;;5.60;1.37;;;;;;;;;;5106196;28;20028;-62
2021/09/06 03:34:00;;;;;;;4.67;1.17;;;;;;;;;;5091817;28;20024;-62
2021/09/06 03:36:27;;;;;;;1.93;0.90;;;;;;;;;;5090488;28;20024;-62
2021/09/06 03:38:55;;;;;;;1.70;1.00;;;;;;;;;;5090331;28;20028;-62
2021/09/06 03:41:22;;;;;;;1.60;1.07;;;;;;;;;;5090210;28;20060;-61
2021/09/06 03:43:50;;;;;;;2.47;1.10;;;;;;;;;;5104365;28;20023;-61
2021/09/06 03:46:17;;;;;;;3.97;1.10;;;;;;;;;;5115804;28;20026;-62
2021/09/06 03:48:44;;;;;;;2.37;0.87;;;;;;;;;;5115961;28;20135;-62
2021/09/06 03:51:11;;;;;;;4.27;1.50;;;;;;;;;;5115693;28;20036;-62
2021/09/06 03:53:37;;;;;;;3.60;1.50;;;;;;;;;;5115668;28;20031;-61
2021/09/06 03:56:04;;;;;;;8.37;3.03;;;;;;;;;;5099738;28;20032;-62
2021/09/06 03:58:31;;;;;;;4.93;1.77;;;;;;;;;;5090046;28;20078;-61
2021/09/06 04:00:58;;;;;;;3.83;2.10;;;;;;;;;;5089781;28;20103;-62
2021/09/06 04:03:25;;;;;;;4.83;1.30;;;;;;;;;;5089951;28;20028;-61
2021/09/06 04:05:51;;;;;;;2.93;1.30;;;;;;;;;;5091940;28;20016;-61
2021/09/06 04:08:18;;;;;;;3.03;1.20;;;;;;;;;;5096132;28;20023;-61
2021/09/06 04:10:45;;;;;;;3.93;1.30;;;;;;;;;;5094887;28;20027;-61
2021/09/06 04:13:12;;;;;;;2.93;1.27;;;;;;;;;;5094962;28;20146;-62
2021/09/06 04:15:38;;;;;;;3.50;1.10;;;;;;;;;;5094955;28;20035;-61
2021/09/06 04:18:05;;;;;;;1.73;0.87;;;;;;;;;;5092385;28;20386;-62
2021/09/06 04:20:32;;;;;;;2.60;1.30;;;;;;;;;;5089404;28;20378;-61
2021/09/06 04:22:59;;;;;;;1.77;1.10;;;;;;;;;;5096598;28;20032;-62
2021/09/06 04:25:25;;;;;;;2.70;1.23;;;;;;;;;;5110000;28;20027;-61
2021/09/06 04:27:52;;;;;;;3.90;1.10;;;;;;;;;;5110685;28;20092;-61
2021/09/06 04:30:19;;;;;;;3.47;1.10;;;;;;;;;;5115185;28;20382;-61
2021/09/06 04:32:46;;;;;;;3.30;1.40;;;;;;;;;;5114958;28;20015;-61
2021/09/06 04:35:12;;;;;;;4.00;1.30;;;;;;;;;;5107244;28;20021;-61
2021/09/06 04:37:39;;;;;;;2.23;0.80;;;;;;;;;;5094416;28;20518;-61
2021/09/06 04:40:06;;;;;;;4.17;1.33;;;;;;;;;;5092794;28;20020;-62
2021/09/06 04:42:33;;;;;;;3.70;1.07;;;;;;;;;;5088750;28;20020;-61
2021/09/06 04:45:00;;;;;;;2.20;1.00;;;;;;;;;;5089316;28;20028;-61
2021/09/06 04:47:27;;;;;;;4.07;1.50;;;;;;;;;;5089362;28;20463;-61
2021/09/06 04:49:53;;;;;;;5.37;1.30;;;;;;;;;;5089239;28;20024;-62
2021/09/06 04:52:20;;;;;;;6.17;1.03;;;;;;;;;;5093984;28;20089;-61
2021/09/06 04:54:47;;;;;;;4.03;1.37;;;;;;;;;;5093944;28;20099;-62
2021/09/06 04:57:14;;;;;;;2.97;0.93;;;;;;;;;;5094261;28;20039;-62
2021/09/06 04:59:40;;;;;;;4.07;1.00;;;;;;;;;;5093591;28;20034;-61
2021/09/06 05:02:07;;;;;;;3.93;1.73;;;;;;;;;;5094113;28;20032;-61
2021/09/06 05:04:34;;;;;;;3.57;1.20;;;;;;;;;;5101686;28;20019;-61
2021/09/06 05:07:00;;;;;;;2.50;1.40;;;;;;;;;;5109420;28;20116;-61
2021/09/06 05:09:27;;;;;;;3.53;1.40;;;;;;;;;;5109308;28;20028;-61
2021/09/06 05:11:54;;;;;;;3.40;1.57;;;;;;;;;;5109258;28;20016;-61
2021/09/06 05:14:21;;;;;;;3.90;1.43;;;;;;;;;;5113656;28;20143;-61
2021/09/06 05:16:48;;;;;;;3.60;1.60;;;;;;;;;;5113854;28;20382;-61
2021/09/06 05:19:14;;;;;;;4.20;1.57;;;;;;;;;;5099379;28;20032;-61
2021/09/06 05:21:41;;;;;;;5.37;1.80;;;;;;;;;;5093826;28;20035;-61
2021/09/06 05:24:08;;;;;;;4.27;1.60;;;;;;;;;;5093763;28;20023;-61
2021/09/06 05:26:35;;;;;;;1.60;0.97;;;;;;;;;;5089393;28;20133;-61
2021/09/06 05:29:02;;;;;;;2.67;1.40;;;;;;;;;;5094298;28;20059;-62
2021/09/06 05:31:28;;;;;;;4.53;1.67;;;;;;;;;;5094362;28;20446;-61
2021/09/06 05:33:55;;;;;;;2.00;1.20;;;;;;;;;;5087723;28;20024;-62
2021/09/06 05:36:22;;;;;;;3.37;1.50;;;;;;;;;;5091113;28;20036;-62
2021/09/06 05:38:49;;;;;;;4.43;1.47;;;;;;;;;;5093201;28;20032;-62
2021/09/06 05:41:19;;;;;;;3.47;1.60;;;;;;;;;;5093259;28;20024;-61
2021/09/06 05:43:46;;;;;;;2.43;1.33;;;;;;;;;;5088998;28;20016;-61
2021/09/06 05:46:13;;;;;;;2.50;1.20;;;;;;;;;;5094392;28;20024;-63
2021/09/06 05:48:39;;;;;;;2.57;1.10;;;;;;;;;;5109224;28;20020;-62
2021/09/06 05:51:06;;;;;;;7.30;2.87;;;;;;;;;;5088040;28;20028;-62
2021/09/06 05:53:33;;;;;;;4.77;1.40;;;;;;;;;;5087169;28;20025;-61
2021/09/06 05:56:00;;;;;;;4.67;2.33;;;;;;;;;;5087463;28;20137;-61
2021/09/06 05:58:26;;;;;;;3.43;1.60;;;;;;;;;;5096156;28;20070;-62
2021/09/06 06:00:53;;;;;;;3.80;1.70;;;;;;;;;;5111661;28;20076;-61
2021/09/06 06:03:20;;;;;;;4.87;1.33;;;;;;;;;;5110409;28;20118;-61
2021/09/06 06:05:47;;;;;;;4.47;1.90;;;;;;;;;;5101608;28;20050;-62
2021/09/06 06:08:14;;;;;;;3.07;1.50;;;;;;;;;;5092838;28;20016;-62
2021/09/06 06:10:41;;;;;;;2.07;1.30;;;;;;;;;;5089714;28;20016;-62
2021/09/06 06:13:08;;;;;;;6.23;1.50;;;;;;;;;;5091092;28;20167;-62
2021/09/06 06:15:35;;;;;;;6.37;1.90;;;;;;;;;;5101320;28;20039;-61
2021/09/06 06:18:01;;;;;;;2.80;1.20;;;;;;;;;;5107847;28;20426;-61
2021/09/06 06:20:28;;;;;;;3.60;1.80;;;;;;;;;;5109204;28;20488;-62
2021/09/06 06:22:55;;;;;;;4.00;1.27;;;;;;;;;;5092456;28;20032;-62
2021/09/06 06:25:22;;;;;;;3.13;1.27;;;;;;;;;;5092401;28;20085;-62
2021/09/06 06:27:49;;;;;;;2.70;1.40;;;;;;;;;;5093198;28;20028;-62
2021/09/06 06:30:16;;;;;;;6.07;1.70;;;;;;;;;;5108587;28;20446;-62
2021/09/06 06:32:43;;;;;;;3.40;1.43;;;;;;;;;;5110375;28;20115;-62
2021/09/06 06:35:10;;;;;;;2.03;1.10;;;;;;;;;;5107378;28;20041;-61
2021/09/06 06:37:36;;;;;;;4.30;1.17;;;;;;;;;;5089473;28;20040;-62
2021/09/06 06:40:04;;;;;;;2.63;1.20;;;;;;;;;;5087258;28;20020;-62
2021/09/06 06:42:30;;;;;;;3.73;1.13;;;;;;;;;;5088292;28;20024;-62
2021/09/06 06:44:57;;;;;;;3.97;1.53;;;;;;;;;;5097014;28;20085;-61
2021/09/06 06:47:24;;;;;;;2.97;1.23;;;;;;;;;;5112772;28;20374;-62
2021/09/06 06:49:51;;;;;;;2.87;1.47;;;;;;;;;;5112281;28;20063;-61
2021/09/06 06:52:17;;;;;;;3.10;1.20;;;;;;;;;;5105139;28;20086;-62
2021/09/06 06:54:45;;;;;;;4.00;1.30;;;;;;;;;;5097199;28;20024;-61
2021/09/06 06:57:12;;;;;;;3.10;1.27;;;;;;;;;;5106804;28;20370;-61
2021/09/06 06:59:38;;;;;;;2.57;1.40;;;;;;;;;;5095733;28;20024;-62
2021/09/06 07:02:05;;;;;;;2.70;1.23;;;;;;;;;;5097424;28;20035;-62
2021/09/06 07:04:32;;;;;;;2.47;1.30;;;;;;;;;;5076084;28;20347;-62
2021/09/06 07:06:59;;;;;;;2.77;1.30;;;;;;;;;;5103565;28;20511;-62
2021/09/06 07:09:26;;;;;;;2.53;1.10;;;;;;;;;;5115743;28;20474;-61
2021/09/06 07:11:52;;;;;;;2.40;1.30;;;;;;;;;;5116044;28;20027;-61
2021/09/06 07:14:19;;;;;;;2.10;1.33;;;;;;;;;;5115610;28;20027;-61
2021/09/06 07:16:46;;;;;;;6.70;1.60;;;;;;;;;;5115095;28;20019;-62
2021/09/06 07:19:13;;;;;;;2.67;1.30;;;;;;;;;;5110719;28;20428;-62
2021/09/06 07:21:39;;;;;;;3.80;1.43;;;;;;;;;;5108992;28;20382;-61
2021/09/06 07:24:06;;;;;;;6.53;1.17;;;;;;;;;;5104801;28;20024;-63
2021/09/06 07:26:33;;;;;;;4.03;1.40;;;;;;;;;;5090500;28;20078;-62
2021/09/06 07:29:00;;;;;;;4.33;2.00;;;;;;;;;;5095376;28;20032;-62
2021/09/06 07:31:27;;;;;;;3.83;1.83;;;;;;;;;;5096630;28;20020;-62
2021/09/06 07:33:54;;;;;;;4.67;2.00;;;;;;;;;;5115989;28;20438;-62
2021/09/06 07:36:20;;;;;;;4.17;1.80;;;;;;;;;;5116222;28;20386;-62
2021/09/06 07:38:47;;;;;;;3.53;1.60;;;;;;;;;;5114878;28;20027;-62
2021/09/06 07:41:14;;;;;;;3.37;1.80;;;;;;;;;;5110178;28;20440;-62
2021/09/06 07:43:43;;;;;;;4.60;1.67;;;;;;;;;;5102257;28;20418;-63
2021/09/06 07:46:10;;;;;;;4.37;1.77;;;;;;;;;;5090203;28;20111;-62
2021/09/06 07:48:37;;;;;;;3.93;1.90;;;;;;;;;;5090178;28;20432;-62
2021/09/06 07:51:04;;;;;;;3.83;1.87;;;;;;;;;;5094355;28;20107;-62
2021/09/06 07:53:30;;;;;;;2.73;1.57;;;;;;;;;;5095400;28;20085;-62
2021/09/06 07:55:57;;;;;;;11.47;1.73;;;;;;;;;;5099244;28;20051;-63
2021/09/06 07:58:25;;;;;;;2.60;1.70;;;;;;;;;;5115173;28;20470;-63
2021/09/06 08:00:52;;;;;;;3.90;1.90;;;;;;;;;;5115132;28;20111;-63
2021/09/06 08:03:19;;;;;;;12.40;2.90;;;;;;;;;;5103685;28;20024;-64
2021/09/06 08:05:45;;;;;;;4.53;2.00;;;;;;;;;;5089975;28;20028;-62
2021/09/06 08:08:14;;;;;;;6.60;1.90;;;;;;;;;;5106781;28;20076;-63
2021/09/06 08:10:41;;;;;;;3.87;2.10;;;;;;;;;;5109682;28;20096;-62
2021/09/06 08:13:08;;;;;;;4.70;2.00;;;;;;;;;;5113146;28;20039;-62
2021/09/06 08:15:35;;;;;;;4.00;1.70;;;;;;;;;;5115167;28;20027;-62
2021/09/06 08:18:03;;;;;;;7.73;2.20;;;;;;;;;;5112068;28;20035;-62
2021/09/06 08:20:30;;;;;;;22.87;3.07;;;;;;;;;;5114566;28;20494;-62
2021/09/06 08:22:57;;;;;;;12.03;2.30;;;;;;;;;;5115191;28;20106;-62
2021/09/06 08:25:24;;;;;;;13.97;2.13;;;;;;;;;;5111177;28;20023;-62
2021/09/06 08:27:51;;;;;;;3.97;1.50;;;;;;;;;;5097710;28;20024;-63
2021/09/06 08:30:18;;;;;;;9.13;2.17;;;;;;;;;;5089330;28;20527;-62
2021/09/06 08:32:45;;;;;;;5.13;1.90;;;;;;;;;;5098007;28;20176;-63
2021/09/06 08:35:12;;;;;;;24.47;2.83;;;;;;;;;;5112617;28;20471;-62
2021/09/06 08:37:39;;;;;;;6.77;1.60;;;;;;;;;;5104611;28;20382;-62
2021/09/06 08:40:07;;;;;;;4.07;1.40;;;;;;;;;;5094379;28;20027;-62
2021/09/06 08:42:34;;;;;;;4.17;1.60;;;;;;;;;;5094262;28;20024;-62
2021/09/06 08:45:01;;;;;;;6.37;1.60;;;;;;;;;;5093881;28;20039;-63
2021/09/06 08:47:28;;;;;;;3.97;1.30;;;;;;;;;;5091118;28;20467;-62
2021/09/06 08:49:55;;;;;;;8.23;1.77;;;;;;;;;;5089144;28;20028;-63
2021/09/06 08:52:21;;;;;;;2.63;1.13;;;;;;;;;;5088850;28;20032;-62
2021/09/06 08:54:48;;;;;;;6.10;1.70;;;;;;;;;;5089052;28;20020;-62
2021/09/06 08:57:15;;;;;;;4.03;1.20;;;;;;;;;;5091234;28;20028;-62
2021/09/06 08:59:47;;;;;;;6.87;1.57;;;;;;;;;;5101602;28;20031;-63
2021/09/06 09:02:21;;;;;;;3.23;1.50;;;;;;;;;;5093788;28;20077;-63
2021/09/06 09:04:58;;;;;;;4.38;1.05;;;;;;;;;;5093753;28;20062;-62
2021/09/06 09:07:28;;;;;;;3.87;1.50;;;;;;;;;;5093794;28;20028;-62
2021/09/06 09:09:55;;;;;;;2.67;1.30;;;;;;;;;;5090211;28;20020;-62
2021/09/06 09:12:22;;;;;;;6.47;1.70;;;;;;;;;;5095362;28;20467;-62
2021/09/06 09:14:50;;;;;;;3.70;1.30;;;;;;;;;;5108437;28;20084;-61
2021/09/06 09:17:17;;;;;;;4.13;1.20;;;;;;;;;;5108408;28;20046;-62
2021/09/06 09:19:45;;;;;;;5.53;1.27;;;;;;;;;;5111206;28;20117;-62
2021/09/06 09:22:19;;;;;;;6.63;1.50;;;;;;;;;;5113733;28;20539;-62
2021/09/06 09:25:06;;;;;;;6.30;1.55;;;;;;;;;;5113957;28;20016;-62
2021/09/06 09:27:43;;;;;;;3.70;1.57;;;;;;;;;;5114113;28;20032;-62
2021/09/06 09:30:12;;;;;;;3.53;1.43;;;;;;;;;;5105858;28;20069;-62
2021/09/06 09:32:39;;;;;;;3.73;1.23;;;;;;;;;;5104055;28;20020;-62
2021/09/06 09:35:06;;;;;;;2.67;1.20;;;;;;;;;;5088229;28;20062;-62
2021/09/06 09:37:34;;;;;;;4.70;1.30;;;;;;;;;;5087587;28;20074;-61
2021/09/06 09:40:04;;;;;;;1.73;1.20;;;;;;;;;;5088194;28;20059;-61
2021/09/06 09:42:31;;;;;;;3.33;1.47;;;;;;;;;;5098195;28;20051;-61
2021/09/06 09:44:59;;;;;;;2.20;1.27;;;;;;;;;;5112797;28;20102;-61
2021/09/06 09:47:26;;;;;;;3.70;0.97;;;;;;;;;;5112943;28;20031;-61
2021/09/06 09:49:58;;;;;;;2.37;1.10;;;;;;;;;;5113299;28;20028;-61
2021/09/06 09:52:25;;;;;;;1.67;0.90;;;;;;;;;;5112956;28;20453;-60
2021/09/06 09:54:54;;;;;;;3.37;1.00;;;;;;;;;;5106435;28;20024;-61
2021/09/06 09:57:24;;;;;;;4.87;1.07;;;;;;;;;;5087689;28;20380;-61
2021/09/06 09:59:52;;;;;;;2.33;1.07;;;;;;;;;;5087661;28;20162;-61
2021/09/06 10:02:20;;;;;;;2.77;1.07;;;;;;;;;;5087293;28;20028;-61
2021/09/06 10:04:49;;;;;;;1.70;0.77;;;;;;;;;;5090933;28;20031;-61
2021/09/06 10:07:16;;;;;;;1.33;0.77;;;;;;;;;;5092784;28;20027;-61
2021/09/06 10:09:43;;;;;;;0.90;0.60;;;;;;;;;;5092428;28;20037;-61
2021/09/06 10:12:11;;;;;;;1.27;0.80;;;;;;;;;;5092893;28;20480;-61
2021/09/06 10:14:48;;;;;;;1.60;0.70;;;;;;;;;;5110255;28;20020;-61
2021/09/06 10:17:15;;;;;;;0.93;0.73;;;;;;;;;;5108864;28;20023;-61
2021/09/06 10:19:42;;;;;;;2.03;0.80;;;;;;;;;;5106927;28;20111;-61
2021/09/06 10:22:29;;;;;;;1.80;0.90;;;;;;;;;;5107308;28;20027;-61
2021/09/06 10:25:02;;;;;;;2.30;0.90;;;;;;;;;;5105538;28;20032;-61
2021/09/06 10:27:30;;;;;;;1.33;0.80;;;;;;;;;;5098229;28;20039;-61
2021/09/06 10:30:01;;;;;;;3.80;1.10;;;;;;;;;;5092438;28;20036;-61
2021/09/06 10:32:34;;;;;;;2.40;1.03;;;;;;;;;;5092049;28;20035;-60
2021/09/06 10:35:08;;;;;;;2.17;1.17;;;;;;;;;;5097010;28;20030;-61
2021/09/06 10:37:36;;;;;;;2.77;1.07;;;;;;;;;;5112734;28;20122;-61
2021/09/06 10:40:06;;;;;;;1.93;0.97;;;;;;;;;;5107392;28;20028;-61
2021/09/06 10:42:34;;;;;;;2.90;1.10;;;;;;;;;;5107157;28;20160;-61
2021/09/06 10:45:02;;;;;;;1.93;0.97;;;;;;;;;;5087278;28;20111;-61
2021/09/06 10:47:35;;;;;;;1.83;0.80;;;;;;;;;;5087001;28;20028;-60
2021/09/06 10:50:10;;;;;;;3.03;1.07;;;;;;;;;;5091281;28;20378;-61
2021/09/06 10:52:38;;;;;;;7.70;1.40;;;;;;;;;;5092045;28;20548;-60
2021/09/06 10:55:05;;;;;;;4.00;1.10;;;;;;;;;;5094296;28;20023;-61
2021/09/06 10:57:35;;;;;;;2.03;1.07;;;;;;;;;;5112025;28;20858;-60
2021/09/06 11:00:02;;;;;;;2.00;1.03;;;;;;;;;;5112639;28;20047;-61
2021/09/06 11:02:29;;;;;;;1.70;0.87;;;;;;;;;;5107300;28;20519;-60
2021/09/06 11:04:56;;;;;;;2.60;0.93;;;;;;;;;;5107231;28;20108;-61
2021/09/06 11:07:23;;;;;;;2.20;1.10;;;;;;;;;;5093817;28;20036;-61
2021/09/06 11:09:49;;;;;;;2.13;1.10;;;;;;;;;;5086824;28;20051;-60
2021/09/06 11:12:16;;;;;;;1.80;0.90;;;;;;;;;;5090820;28;20362;-60
2021/09/06 11:14:44;;;;;;;2.03;1.03;;;;;;;;;;5091693;28;20107;-60
2021/09/06 11:17:22;;;;;;;3.30;1.20;;;;;;;;;;5097418;28;20032;-60
2021/09/06 11:19:49;;;;;;;4.13;1.10;;;;;;;;;;5098695;28;20028;-60
2021/09/06 11:22:17;;;;;;;2.73;1.10;;;;;;;;;;5093063;28;20024;-60
2021/09/06 11:24:44;;;;;;;2.47;1.10;;;;;;;;;;5087439;28;20036;-60
2021/09/06 11:27:24;;;;;;;2.57;1.10;;;;;;;;;;5086275;28;20085;-61
2021/09/06 11:29:51;;;;;;;3.97;1.10;;;;;;;;;;5086748;28;20016;-61
2021/09/06 11:32:18;;;;;;;2.33;1.07;;;;;;;;;;5086977;28;20030;-60
2021/09/06 11:34:45;;;;;;;2.77;0.90;;;;;;;;;;5103037;28;20441;-60
2021/09/06 11:37:13;;;;;;;2.37;0.93;;;;;;;;;;5105958;28;20040;-60
2021/09/06 11:39:42;;;;;;;1.60;0.90;;;;;;;;;;5091935;28;20493;-60
2021/09/06 11:42:09;;;;;;;2.53;1.00;;;;;;;;;;5091782;28;20416;-60
2021/09/06 11:44:36;;;;;;;3.40;0.80;;;;;;;;;;5091940;28;20749;-60
2021/09/06 11:47:04;;;;;;;1.60;0.80;;;;;;;;;;5087322;28;20012;-60
2021/09/06 11:49:30;;;;;;;2.03;0.80;;;;;;;;;;5086621;28;20056;-60
2021/09/06 11:52:06;;;;;;;1.43;0.73;;;;;;;;;;5095004;28;20088;-60
2021/09/06 11:54:40;;;;;;;3.27;1.30;;;;;;;;;;5089793;28;20032;-61
2021/09/06 11:57:07;;;;;;;2.42;1.00;;;;;;;;;;5094290;28;20020;-60
2021/09/06 11:59:34;;;;;;;2.47;1.10;;;;;;;;;;5095364;28;20103;-60
2021/09/06 12:02:10;;;;;;;2.60;0.87;;;;;;;;;;5094872;28;20031;-60
2021/09/06 12:04:38;;;;;;;4.30;1.30;;;;;;;;;;5107071;28;20019;-60
2021/09/06 12:07:17;;;;;;;1.83;1.00;;;;;;;;;;5115038;28;20031;-60
2021/09/06 12:09:44;;;;;;;4.67;1.23;;;;;;;;;;5093566;28;20427;-60
2021/09/06 12:12:24;;;;;;;3.47;1.10;;;;;;;;;;5089744;28;20020;-61
2021/09/06 12:14:52;;;;;;;2.43;1.20;;;;;;;;;;5089571;28;20449;-60
2021/09/06 12:17:20;;;;;;;1.43;0.90;;;;;;;;;;5089626;28;20032;-60
2021/09/06 12:19:48;;;;;;;4.00;1.30;;;;;;;;;;5093931;28;20052;-60
2021/09/06 12:22:18;;;;;;;2.17;1.27;;;;;;;;;;5105153;28;20035;-61
2021/09/06 12:24:45;;;;;;;3.57;1.50;;;;;;;;;;5106432;28;20544;-60
2021/09/06 12:27:13;;;;;;;2.07;1.20;;;;;;;;;;5094580;28;20051;-60
2021/09/06 12:29:41;;;;;;;4.23;1.67;;;;;;;;;;5094588;28;20068;-60
2021/09/06 12:32:08;;;;;;;3.33;1.30;;;;;;;;;;5089218;28;20521;-60
2021/09/06 12:34:35;;;;;;;2.60;1.60;;;;;;;;;;5102012;28;20554;-60
2021/09/06 12:37:03;;;;;;;2.43;1.50;;;;;;;;;;5107616;28;20051;-60
2021/09/06 12:39:32;;;;;;;2.40;1.57;;;;;;;;;;5089121;28;20357;-60
2021/09/06 12:41:59;;;;;;;3.20;1.90;;;;;;;;;;5112433;28;20032;-60
2021/09/06 12:44:26;;;;;;;2.97;1.80;;;;;;;;;;5104730;28;20512;-60
2021/09/06 12:46:54;;;;;;;2.80;1.60;;;;;;;;;;5094300;28;20494;-60
2021/09/06 12:49:25;;;;;;;3.07;1.43;;;;;;;;;;5093787;28;20169;-60
2021/09/06 12:51:51;;;;;;;2.53;1.40;;;;;;;;;;5100209;28;20029;-60
2021/09/06 12:54:18;;;;;;;2.40;1.50;;;;;;;;;;5087874;28;20032;-62
2021/09/06 12:56:45;;;;;;;2.20;1.50;;;;;;;;;;5086326;28;20081;-60
2021/09/06 12:59:12;;;;;;;4.43;1.60;;;;;;;;;;5108830;28;20028;-60
2021/09/06 13:01:38;;;;;;;2.07;1.37;;;;;;;;;;5109359;28;20031;-60
2021/09/06 13:04:05;;;;;;;2.70;1.40;;;;;;;;;;5112583;28;20065;-60
2021/09/06 13:06:32;;;;;;;3.37;1.67;;;;;;;;;;5113199;28;20031;-60
2021/09/06 13:08:59;;;;;;;3.33;1.60;;;;;;;;;;5111154;28;20423;-60
2021/09/06 13:11:25;;;;;;;3.67;2.03;;;;;;;;;;5109975;28;20379;-61
2021/09/06 13:13:52;;;;;;;3.10;1.83;;;;;;;;;;5093760;28;20592;-60
2021/09/06 13:16:19;;;;;;;2.80;1.70;;;;;;;;;;5089604;28;20028;-60
2021/09/06 13:18:46;;;;;;;3.47;1.60;;;;;;;;;;5088399;28;20038;-60
2021/09/06 13:21:12;;;;;;;3.70;1.80;;;;;;;;;;5088268;28;20024;-61
2021/09/06 13:23:40;;;;;;;2.33;1.27;;;;;;;;;;5088884;28;20027;-60
2021/09/06 13:26:13;;;;;;;2.77;1.53;;;;;;;;;;5091358;28;20057;-60
2021/09/06 13:28:43;;;;;;;3.67;2.10;;;;;;;;;;5107683;28;20110;-60
2021/09/06 13:31:12;;;;;;;5.27;2.90;;;;;;;;;;5113916;28;20065;-60
2021/09/06 13:33:39;;;;;;;5.40;3.00;;;;;;;;;;5113739;28;20038;-60
2021/09/06 13:36:06;;;;;;;10.77;6.73;;;;;;;;;;5113222;28;20024;-60
2021/09/06 13:38:33;;;;;;;11.57;7.83;;;;;;;;;;5094402;28;20038;-60
2021/09/06 13:41:01;;;;;;;16.73;11.33;;;;;;;;;;5088047;28;20402;-60
2021/09/06 13:43:28;;;;;;;16.80;11.50;;;;;;;;;;5092527;28;20480;-60
2021/09/06 13:45:57;;;;;;;16.60;10.90;;;;;;;;;;5108363;28;20106;-60
2021/09/06 13:48:24;;;;;;;10.63;7.47;;;;;;;;;;5109152;28;20027;-60
2021/09/06 13:50:50;;;;;;;10.07;7.37;;;;;;;;;;5113186;28;20042;-60
2021/09/06 13:53:17;;;;;;;14.07;8.47;;;;;;;;;;5112502;28;20030;-60
2021/09/06 13:55:44;;;;;;;8.87;6.50;;;;;;;;;;5113351;28;20028;-60
2021/09/06 13:58:11;;;;;;;11.23;5.60;;;;;;;;;;5099199;28;20550;-60
2021/09/06 14:00:38;;;;;;;8.40;4.63;;;;;;;;;;5109823;28;20508;-60
2021/09/06 14:03:04;;;;;;;5.80;4.20;;;;;;;;;;5107640;28;20091;-61
2021/09/06 14:05:31;;;;;;;8.40;5.13;;;;;;;;;;5107460;28;20042;-61
2021/09/06 14:07:58;;;;;;;11.50;6.13;;;;;;;;;;5107758;28;20031;-60
2021/09/06 14:10:25;;;;;;;7.77;4.60;;;;;;;;;;5109829;28;20016;-60
2021/09/06 14:12:52;;;;;;;7.73;4.30;;;;;;;;;;5112758;28;20110;-60
2021/09/06 14:15:19;;;;;;;12.97;3.07;;;;;;;;;;5101332;28;20020;-60
2021/09/06 14:17:46;;;;;;;4.67;2.70;;;;;;;;;;5103858;28;20042;-60
2021/09/06 14:20:13;;;;;;;5.63;3.07;;;;;;;;;;5113019;28;20535;-60
2021/09/06 14:22:40;;;;;;;5.50;3.50;;;;;;;;;;5110394;28;20482;-60
2021/09/06 14:25:07;;;;;;;5.67;3.23;;;;;;;;;;5107692;28;20028;-60
2021/09/06 14:27:34;;;;;;;3.43;2.33;;;;;;;;;;5100918;28;20119;-60
2021/09/06 14:30:00;;;;;;;4.00;2.50;;;;;;;;;;5087318;28;20040;-60
2021/09/06 14:32:27;;;;;;;5.27;1.70;;;;;;;;;;5109038;28;20370;-60
2021/09/06 14:34:54;;;;;;;1.83;1.10;;;;;;;;;;5112783;28;20509;-60
2021/09/06 14:37:21;;;;;;;2.33;0.90;;;;;;;;;;5112488;28;20378;-60
2021/09/06 14:39:47;;;;;;;3.70;1.13;;;;;;;;;;5112892;28;20482;-61
2021/09/06 14:42:14;;;;;;;2.57;1.33;;;;;;;;;;5112522;28;20539;-60
2021/09/06 14:44:41;;;;;;;3.27;0.80;;;;;;;;;;5110409;28;20474;-60